createdAt,value
2023-04-07T00:00:21.863Z,7.6215
2023-04-07T00:01:30.135Z,7.2757
2023-04-07T00:02:38.256Z,7.2070
2023-04-07T00:03:46.398Z,7.2832
2023-04-07T00:04:54.301Z,7.4603
2023-04-07T00:06:02.210Z,7.6711
2023-04-07T00:07:10.533Z,7.8279
2023-04-07T00:08:18.340Z,7.9557
2023-04-07T00:09:26.794Z,8.0379
2023-04-07T00:10:34.646Z,8.1432
2023-04-07T00:11:42.727Z,8.1289
2023-04-07T00:12:50.966Z,7.9414
2023-04-07T00:13:58.908Z,7.8369
2023-04-07T00:15:06.797Z,7.7905
2023-04-07T00:16:15.051Z,7.8168
2023-04-07T00:17:23.100Z,7.8739
2023-04-07T00:18:31.143Z,8.0379
2023-04-07T00:19:39.286Z,8.0047
2023-04-07T00:20:47.309Z,8.0318
2023-04-07T00:21:55.461Z,8.0987
2023-04-07T00:23:03.284Z,8.2365
2023-04-07T00:24:12.977Z,8.3345
2023-04-07T00:25:24.466Z,8.3198
2023-04-07T00:26:32.494Z,8.4135
2023-04-07T00:27:40.543Z,8.4203
2023-04-07T00:28:48.696Z,8.4722
2023-04-07T00:29:56.826Z,8.3614
2023-04-07T00:31:04.986Z,7.9948
2023-04-07T00:32:12.991Z,7.9864
2023-04-07T00:33:20.924Z,8.0745
2023-04-07T00:34:29.016Z,8.0987
2023-04-07T00:35:37.004Z,8.0337
2023-04-07T00:36:45.227Z,7.9565
2023-04-07T00:37:53.238Z,7.8008
2023-04-07T00:39:01.302Z,7.6721
2023-04-07T00:40:09.499Z,7.6419
2023-04-07T00:41:17.333Z,7.5122
2023-04-07T00:42:25.522Z,7.6587
2023-04-07T00:43:33.452Z,7.6858
2023-04-07T00:44:41.683Z,7.5466
2023-04-07T00:45:49.728Z,7.4377
2023-04-07T00:46:57.708Z,7.5790
2023-04-07T00:48:05.987Z,7.6539
2023-04-07T00:49:14.002Z,7.7327
2023-04-07T00:50:22.174Z,7.7596
2023-04-07T00:51:30.056Z,7.5559
2023-04-07T00:52:38.060Z,7.4016
2023-04-07T00:53:46.416Z,7.3970
2023-04-07T00:54:54.326Z,6.8990
2023-04-07T00:56:02.420Z,6.6703
2023-04-07T00:57:10.494Z,6.4262
2023-04-07T00:58:18.435Z,6.3371
2023-04-07T00:59:26.653Z,6.2785
2023-04-07T01:00:34.688Z,6.3720
2023-04-07T01:01:42.963Z,6.5599
2023-04-07T01:02:51.054Z,6.5776
2023-04-07T01:03:59.492Z,6.6844
2023-04-07T01:05:07.212Z,6.7012
2023-04-07T01:06:15.309Z,6.6306
2023-04-07T01:07:23.125Z,6.5528
2023-04-07T01:08:31.327Z,6.6585
2023-04-07T01:09:39.342Z,6.9003
2023-04-07T01:10:47.312Z,6.8981
2023-04-07T01:11:55.439Z,6.7233
2023-04-07T01:13:03.492Z,6.7836
2023-04-07T01:14:11.701Z,6.6852
2023-04-07T01:15:19.706Z,6.5910
2023-04-07T01:16:27.876Z,6.6394
2023-04-07T01:17:35.781Z,6.6270
2023-04-07T01:18:43.915Z,6.5088
2023-04-07T01:19:51.939Z,6.4548
2023-04-07T01:21:00.099Z,6.4870
2023-04-07T01:22:08.125Z,6.4901
2023-04-07T01:23:16.124Z,6.5025
2023-04-07T01:24:24.222Z,6.5715
2023-04-07T01:25:32.301Z,6.5503
2023-04-07T01:26:40.417Z,6.4443
2023-04-07T01:27:48.442Z,6.4002
2023-04-07T01:28:56.559Z,6.3569
2023-04-07T01:30:04.474Z,6.2246
2023-04-07T01:31:12.929Z,6.0729
2023-04-07T01:32:20.901Z,6.1998
2023-04-07T01:33:28.816Z,6.3417
2023-04-07T01:34:36.909Z,6.3598
2023-04-07T01:35:45.025Z,6.5122
2023-04-07T01:36:53.059Z,6.6020
2023-04-07T01:38:01.197Z,6.4128
2023-04-07T01:39:09.211Z,6.3257
2023-04-07T01:40:17.129Z,6.3859
2023-04-07T01:41:25.334Z,6.6648
2023-04-07T01:42:33.402Z,6.9122
2023-04-07T01:43:41.783Z,6.8874
2023-04-07T01:44:49.558Z,6.9795
2023-04-07T01:45:57.718Z,6.9793
2023-04-07T01:47:05.816Z,6.8664
2023-04-07T01:48:13.903Z,6.6942
2023-04-07T01:49:21.915Z,6.5854
2023-04-07T01:50:29.913Z,6.5803
2023-04-07T01:51:38.152Z,6.4527
2023-04-07T01:52:46.051Z,6.4536
2023-04-07T01:53:54.307Z,6.5309
2023-04-07T01:55:02.260Z,6.6150
2023-04-07T01:56:10.310Z,6.4744
2023-04-07T01:57:18.358Z,6.5456
2023-04-07T01:58:26.330Z,6.3802
2023-04-07T01:59:34.518Z,6.3609
2023-04-07T02:00:42.879Z,6.5435
2023-04-07T02:01:50.880Z,6.7695
2023-04-07T02:02:58.799Z,6.8492
2023-04-07T02:04:06.721Z,6.8534
2023-04-07T02:05:14.873Z,6.8178
2023-04-07T02:06:23.009Z,6.6602
2023-04-07T02:07:31.051Z,6.6188
2023-04-07T02:08:39.130Z,6.7334
2023-04-07T02:09:47.351Z,6.9082
2023-04-07T02:10:55.215Z,6.9007
2023-04-07T02:12:03.372Z,6.9553
2023-04-07T02:13:11.458Z,7.0417
2023-04-07T02:14:19.409Z,7.1224
2023-04-07T02:15:27.577Z,7.0880
2023-04-07T02:16:35.601Z,7.0135
2023-04-07T02:17:43.884Z,6.8088
2023-04-07T02:18:51.813Z,6.7005
2023-04-07T02:19:59.795Z,6.5719
2023-04-07T02:21:07.974Z,6.4899
2023-04-07T02:22:15.934Z,6.3932
2023-04-07T02:23:24.075Z,6.3079
2023-04-07T02:24:32.162Z,6.5149
2023-04-07T02:25:40.297Z,6.5633
2023-04-07T02:26:48.103Z,6.6734
2023-04-07T02:27:56.305Z,6.7174
2023-04-07T02:29:04.437Z,6.7699
2023-04-07T02:30:12.493Z,6.9150
2023-04-07T02:31:20.522Z,6.8918
2023-04-07T02:32:28.827Z,6.9503
2023-04-07T02:33:36.640Z,6.9343
2023-04-07T02:34:44.759Z,6.7903
2023-04-07T02:35:52.918Z,6.7026
2023-04-07T02:37:00.962Z,6.5891
2023-04-07T02:38:08.928Z,6.5681
2023-04-07T02:39:16.968Z,6.6396
2023-04-07T02:40:24.942Z,6.7323
2023-04-07T02:41:33.126Z,6.7195
2023-04-07T02:42:41.151Z,6.5475
2023-04-07T02:43:49.234Z,6.3829
2023-04-07T02:44:57.390Z,6.1794
2023-04-07T02:46:05.600Z,5.9926
2023-04-07T02:47:13.446Z,5.7975
2023-04-07T02:48:21.515Z,5.6478
2023-04-07T02:49:29.580Z,5.6579
2023-04-07T02:50:37.653Z,5.6338
2023-04-07T02:51:45.795Z,5.6283
2023-04-07T02:52:53.812Z,5.5421
2023-04-07T02:54:01.883Z,5.6415
2023-04-07T02:55:09.951Z,5.7557
2023-04-07T02:56:18.111Z,5.9344
2023-04-07T02:57:26.268Z,6.0109
2023-04-07T02:58:33.995Z,5.8700
2023-04-07T02:59:42.185Z,5.6464
2023-04-07T03:00:50.897Z,5.5472
2023-04-07T03:01:58.532Z,5.3357
2023-04-07T03:03:06.700Z,5.1284
2023-04-07T03:04:14.606Z,4.9344
2023-04-07T03:05:22.683Z,4.8440
2023-04-07T03:06:30.595Z,4.8614
2023-04-07T03:07:38.660Z,4.8823
2023-04-07T03:08:46.915Z,4.9224
2023-04-07T03:09:54.824Z,4.8579
2023-04-07T03:11:02.882Z,4.8015
2023-04-07T03:12:10.873Z,4.8305
2023-04-07T03:13:19.131Z,5.0983
2023-04-07T03:14:27.272Z,5.3460
2023-04-07T03:15:35.189Z,5.4212
2023-04-07T03:16:43.332Z,5.4507
2023-04-07T03:17:51.484Z,5.6329
2023-04-07T03:18:59.389Z,5.6569
2023-04-07T03:20:07.505Z,5.7185
2023-04-07T03:21:15.472Z,5.5791
2023-04-07T03:22:23.591Z,5.4172
2023-04-07T03:23:31.597Z,5.4231
2023-04-07T03:24:39.795Z,5.2665
2023-04-07T03:25:48.756Z,5.1944
2023-04-07T03:26:55.951Z,5.2238
2023-04-07T03:28:03.947Z,5.0180
2023-04-07T03:29:11.918Z,5.0820
2023-04-07T03:30:20.103Z,5.1379
2023-04-07T03:31:28.255Z,5.1629
2023-04-07T03:32:36.315Z,5.0700
2023-04-07T03:33:44.410Z,5.0487
2023-04-07T03:34:52.576Z,5.2434
2023-04-07T03:36:00.591Z,5.4229
2023-04-07T03:37:08.557Z,5.5181
2023-04-07T03:38:16.743Z,5.5162
2023-04-07T03:39:24.833Z,5.6121
2023-04-07T03:40:32.893Z,5.7119
2023-04-07T03:41:40.807Z,5.8889
2023-04-07T03:42:49.047Z,5.8459
2023-04-07T03:43:57.245Z,5.8263
2023-04-07T03:45:05.158Z,5.7828
2023-04-07T03:46:13.340Z,5.6571
2023-04-07T03:47:21.379Z,5.6155
2023-04-07T03:48:29.455Z,5.7517
2023-04-07T03:49:37.465Z,5.9756
2023-04-07T03:50:45.501Z,6.0054
2023-04-07T03:51:53.647Z,5.9014
2023-04-07T03:53:01.681Z,5.8746
2023-04-07T03:54:09.815Z,6.0428
2023-04-07T03:55:17.722Z,6.3108
2023-04-07T03:56:27.920Z,6.5034
2023-04-07T03:57:38.893Z,6.6733
2023-04-07T03:58:46.936Z,6.8132
2023-04-07T03:59:55.066Z,6.9133
2023-04-07T04:01:02.985Z,6.7100
2023-04-07T04:02:11.334Z,6.5122
2023-04-07T04:03:19.445Z,6.4283
2023-04-07T04:04:27.272Z,6.2629
2023-04-07T04:05:35.435Z,6.3337
2023-04-07T04:06:43.313Z,6.3421
2023-04-07T04:07:51.454Z,5.9604
2023-04-07T04:08:59.537Z,5.7635
2023-04-07T04:10:07.632Z,5.5892
2023-04-07T04:11:15.699Z,5.6583
2023-04-07T04:12:23.900Z,5.9512
2023-04-07T04:13:31.864Z,6.1342
2023-04-07T04:14:39.963Z,6.3009
2023-04-07T04:15:48.047Z,6.2425
2023-04-07T04:16:56.100Z,6.2745
2023-04-07T04:18:04.196Z,6.4174
2023-04-07T04:19:12.210Z,6.6148
2023-04-07T04:20:20.316Z,6.8044
2023-04-07T04:21:28.326Z,6.9816
2023-04-07T04:22:36.558Z,7.1037
2023-04-07T04:23:44.496Z,7.1922
2023-04-07T04:24:52.622Z,7.1603
2023-04-07T04:26:00.711Z,7.0155
2023-04-07T04:27:08.767Z,6.7657
2023-04-07T04:28:16.748Z,6.3339
2023-04-07T04:29:24.846Z,6.2806
2023-04-07T04:30:32.865Z,6.3840
2023-04-07T04:31:41.037Z,6.3266
2023-04-07T04:32:49.110Z,6.1826
2023-04-07T04:33:57.177Z,6.1341
2023-04-07T04:35:05.354Z,6.1458
2023-04-07T04:36:13.272Z,6.1465
2023-04-07T04:37:21.378Z,6.0886
2023-04-07T04:38:29.479Z,5.9133
2023-04-07T04:39:37.490Z,5.7517
2023-04-07T04:40:45.717Z,5.6579
2023-04-07T04:41:53.681Z,5.5343
2023-04-07T04:43:01.829Z,5.4050
2023-04-07T04:44:10.045Z,5.2732
2023-04-07T04:45:17.949Z,5.1221
2023-04-07T04:46:26.012Z,4.6248
2023-04-07T04:47:34.168Z,4.5258
2023-04-07T04:48:42.123Z,4.6143
2023-04-07T04:49:50.108Z,4.6969
2023-04-07T04:50:58.324Z,4.6687
2023-04-07T04:52:06.434Z,4.5070
2023-04-07T04:53:14.412Z,4.3584
2023-04-07T04:54:22.497Z,4.2996
2023-04-07T04:55:30.644Z,4.3614
2023-04-07T04:56:38.684Z,4.4461
2023-04-07T04:57:46.704Z,4.2478
2023-04-07T04:58:54.784Z,4.1112
2023-04-07T05:00:02.790Z,4.1936
2023-04-07T05:01:10.927Z,4.3162
2023-04-07T05:02:19.237Z,4.4087
2023-04-07T05:03:27.413Z,4.4475
2023-04-07T05:04:35.312Z,4.4915
2023-04-07T05:05:43.226Z,4.4486
2023-04-07T05:06:51.275Z,4.4152
2023-04-07T05:07:59.494Z,4.3342
2023-04-07T05:09:07.426Z,4.3038
2023-04-07T05:10:15.458Z,4.3252
2023-04-07T05:11:23.607Z,4.2426
2023-04-07T05:12:31.715Z,4.1726
2023-04-07T05:13:39.778Z,4.1968
2023-04-07T05:14:47.784Z,4.2527
2023-04-07T05:15:55.903Z,4.2725
2023-04-07T05:17:04.034Z,4.3431
2023-04-07T05:18:11.998Z,4.5434
2023-04-07T05:19:20.106Z,4.6302
2023-04-07T05:20:28.186Z,4.6432
2023-04-07T05:21:36.215Z,4.7227
2023-04-07T05:22:44.205Z,4.7643
2023-04-07T05:23:52.661Z,4.6769
2023-04-07T05:25:00.547Z,4.6267
2023-04-07T05:26:08.527Z,4.5674
2023-04-07T05:27:16.603Z,4.5661
2023-04-07T05:28:24.649Z,4.6086
2023-04-07T05:29:32.838Z,4.6290
2023-04-07T05:30:40.825Z,4.5663
2023-04-07T05:31:48.900Z,4.5749
2023-04-07T05:32:57.045Z,4.5432
2023-04-07T05:34:05.112Z,4.3925
2023-04-07T05:35:13.067Z,4.4204
2023-04-07T05:36:21.200Z,4.4991
2023-04-07T05:37:29.349Z,4.5924
2023-04-07T05:38:37.288Z,4.6163
2023-04-07T05:39:45.356Z,4.6267
2023-04-07T05:40:53.510Z,4.7547
2023-04-07T05:42:01.537Z,4.8345
2023-04-07T05:43:09.671Z,4.7633
2023-04-07T05:44:17.655Z,4.7509
2023-04-07T05:45:25.860Z,4.7914
2023-04-07T05:46:33.771Z,4.8501
2023-04-07T05:47:41.927Z,4.9914
2023-04-07T05:48:49.909Z,4.9371
2023-04-07T05:49:57.997Z,4.8493
2023-04-07T05:51:06.181Z,4.8551
2023-04-07T05:52:14.112Z,4.9506
2023-04-07T05:53:22.299Z,4.9424
2023-04-07T05:54:30.224Z,4.7404
2023-04-07T05:55:38.340Z,4.6452
2023-04-07T05:56:46.369Z,4.5270
2023-04-07T05:57:54.590Z,4.4839
2023-04-07T05:59:02.610Z,4.5823
2023-04-07T06:00:10.576Z,4.5691
2023-04-07T06:01:18.876Z,4.5484
2023-04-07T06:02:26.881Z,4.5464
2023-04-07T06:03:34.921Z,4.5356
2023-04-07T06:04:42.910Z,4.6540
2023-04-07T06:05:51.080Z,4.6912
2023-04-07T06:06:59.051Z,4.8982
2023-04-07T06:08:07.130Z,5.0618
2023-04-07T06:09:15.201Z,4.9718
2023-04-07T06:10:23.247Z,4.8530
2023-04-07T06:11:31.446Z,4.8078
2023-04-07T06:12:39.458Z,4.8417
2023-04-07T06:13:47.874Z,4.9834
2023-04-07T06:14:55.557Z,5.2119
2023-04-07T06:16:03.686Z,5.2838
2023-04-07T06:17:11.761Z,5.1591
2023-04-07T06:18:19.903Z,5.1648
2023-04-07T06:19:27.844Z,5.2196
2023-04-07T06:20:36.047Z,5.3338
2023-04-07T06:21:44.033Z,5.4612
2023-04-07T06:22:52.088Z,5.5286
2023-04-07T06:24:00.169Z,5.5307
2023-04-07T06:25:08.211Z,5.6251
2023-04-07T06:26:16.405Z,5.6218
2023-04-07T06:27:24.405Z,5.6344
2023-04-07T06:28:32.420Z,5.5076
2023-04-07T06:29:40.620Z,5.3781
2023-04-07T06:30:48.704Z,5.2320
2023-04-07T06:31:56.688Z,5.4313
2023-04-07T06:33:04.775Z,5.4372
2023-04-07T06:34:12.794Z,5.4977
2023-04-07T06:35:20.847Z,5.5991
2023-04-07T06:36:28.969Z,5.5282
2023-04-07T06:37:37.027Z,5.5530
2023-04-07T06:38:45.249Z,5.5493
2023-04-07T06:39:53.157Z,5.6220
2023-04-07T06:41:01.215Z,5.6029
2023-04-07T06:42:09.224Z,5.8206
2023-04-07T06:43:17.361Z,5.9173
2023-04-07T06:44:25.461Z,5.9665
2023-04-07T06:45:33.505Z,5.8919
2023-04-07T06:46:41.854Z,5.8267
2023-04-07T06:47:49.759Z,5.9570
2023-04-07T06:48:57.727Z,6.2526
2023-04-07T06:50:05.897Z,6.2827
2023-04-07T06:51:13.989Z,6.2995
2023-04-07T06:52:21.915Z,6.4346
2023-04-07T06:53:30.007Z,6.8168
2023-04-07T06:54:38.089Z,7.0958
2023-04-07T06:55:46.189Z,7.4405
2023-04-07T06:56:54.718Z,7.6725
2023-04-07T06:58:02.271Z,7.8098
2023-04-07T06:59:10.423Z,7.4861
2023-04-07T07:00:18.356Z,7.2832
2023-04-07T07:01:26.623Z,7.3730
2023-04-07T07:02:34.730Z,7.2315
2023-04-07T07:03:42.708Z,7.1794
2023-04-07T07:04:50.682Z,7.1714
2023-04-07T07:05:58.671Z,7.0922
2023-04-07T07:07:07.004Z,7.1260
2023-04-07T07:08:14.907Z,7.3095
2023-04-07T07:09:22.979Z,7.4640
2023-04-07T07:10:31.121Z,7.5485
2023-04-07T07:11:39.100Z,7.2849
2023-04-07T07:12:47.212Z,6.8519
2023-04-07T07:13:55.242Z,6.8380
2023-04-07T07:15:03.414Z,6.9280
2023-04-07T07:16:11.618Z,6.8229
2023-04-07T07:17:19.445Z,7.0205
2023-04-07T07:18:28.507Z,7.1054
2023-04-07T07:19:35.597Z,7.1956
2023-04-07T07:20:43.670Z,7.4224
2023-04-07T07:21:51.761Z,7.4123
2023-04-07T07:22:59.872Z,7.4356
2023-04-07T07:24:07.909Z,7.4552
2023-04-07T07:25:15.931Z,7.3894
2023-04-07T07:26:24.000Z,7.6303
2023-04-07T07:27:32.123Z,7.7325
2023-04-07T07:28:40.077Z,7.1691
2023-04-07T07:29:48.270Z,6.9343
2023-04-07T07:30:56.389Z,7.0678
2023-04-07T07:32:04.402Z,6.8347
2023-04-07T07:33:12.533Z,6.7365
2023-04-07T07:34:20.474Z,7.0279
2023-04-07T07:35:28.526Z,6.9803
2023-04-07T07:36:36.639Z,6.7737
2023-04-07T07:37:44.625Z,6.8300
2023-04-07T07:38:52.899Z,7.0461
2023-04-07T07:40:00.837Z,7.1012
2023-04-07T07:41:08.849Z,7.0644
2023-04-07T07:42:17.148Z,6.9110
2023-04-07T07:43:25.146Z,6.7787
2023-04-07T07:44:33.112Z,6.7514
2023-04-07T07:45:41.170Z,6.8731
2023-04-07T07:46:49.469Z,7.0800
2023-04-07T07:47:57.518Z,7.2843
2023-04-07T07:49:05.500Z,7.1916
2023-04-07T07:50:13.524Z,7.3381
2023-04-07T07:51:21.619Z,7.3293
2023-04-07T07:52:29.801Z,7.3072
2023-04-07T07:53:37.758Z,7.3133
2023-04-07T07:54:45.822Z,7.3955
2023-04-07T07:55:53.974Z,7.4144
2023-04-07T07:57:01.941Z,7.5881
2023-04-07T07:58:10.037Z,7.6742
2023-04-07T07:59:18.112Z,7.7127
2023-04-07T08:00:26.139Z,7.5378
2023-04-07T08:01:34.419Z,7.4001
2023-04-07T08:02:42.336Z,7.3738
2023-04-07T08:03:50.774Z,7.4314
2023-04-07T08:04:58.588Z,7.3608
2023-04-07T08:06:06.517Z,7.5210
2023-04-07T08:07:14.563Z,7.6810
2023-04-07T08:08:23.328Z,7.7329
2023-04-07T08:09:30.679Z,7.5969
2023-04-07T08:10:38.787Z,7.3965
2023-04-07T08:11:46.937Z,7.0144
2023-04-07T08:12:54.849Z,6.8860
2023-04-07T08:14:02.986Z,6.6488
2023-04-07T08:15:11.042Z,5.9818
2023-04-07T08:16:19.341Z,5.7349
2023-04-07T08:17:27.209Z,5.4818
2023-04-07T08:18:35.286Z,5.4988
2023-04-07T08:19:43.378Z,5.6165
2023-04-07T08:20:51.441Z,5.5091
2023-04-07T08:21:59.472Z,5.8255
2023-04-07T08:23:07.579Z,5.8858
2023-04-07T08:24:15.790Z,6.2385
2023-04-07T08:25:23.683Z,6.3331
2023-04-07T08:26:31.814Z,6.3331
2023-04-07T08:27:39.893Z,6.0531
2023-04-07T08:28:48.005Z,5.7717
2023-04-07T08:29:55.957Z,5.7737
2023-04-07T08:31:04.100Z,5.4757
2023-04-07T08:32:12.264Z,5.1744
2023-04-07T08:33:20.091Z,5.0820
2023-04-07T08:34:28.254Z,5.1312
2023-04-07T08:35:36.385Z,5.1854
2023-04-07T08:36:44.368Z,5.2831
2023-04-07T08:37:52.576Z,5.1566
2023-04-07T08:39:00.451Z,5.1499
2023-04-07T08:40:08.676Z,5.0658
2023-04-07T08:41:16.702Z,5.0849
2023-04-07T08:42:24.731Z,5.0817
2023-04-07T08:43:32.899Z,5.0901
2023-04-07T08:44:40.793Z,5.1465
2023-04-07T08:45:48.953Z,5.2657
2023-04-07T08:46:57.005Z,5.1894
2023-04-07T08:48:05.321Z,5.2684
2023-04-07T08:49:13.197Z,5.1511
2023-04-07T08:50:21.247Z,5.2238
2023-04-07T08:51:29.325Z,5.3514
2023-04-07T08:52:37.501Z,5.3842
2023-04-07T08:53:45.787Z,5.0550
2023-04-07T08:54:53.506Z,5.1122
2023-04-07T08:56:01.611Z,5.0477
2023-04-07T08:57:09.825Z,5.1333
2023-04-07T08:58:17.878Z,5.1431
2023-04-07T08:59:25.832Z,5.0321
2023-04-07T09:00:33.973Z,5.1381
2023-04-07T09:01:42.272Z,4.8181
2023-04-07T09:02:50.134Z,5.0349
2023-04-07T09:03:58.138Z,5.0658
2023-04-07T09:05:06.155Z,5.4620
2023-04-07T09:06:14.420Z,5.9512
2023-04-07T09:07:22.388Z,5.5864
2023-04-07T09:08:30.409Z,5.5469
2023-04-07T09:09:38.608Z,5.7281
2023-04-07T09:10:46.615Z,5.9453
2023-04-07T09:11:54.673Z,5.8271
2023-04-07T09:13:02.688Z,5.9686
2023-04-07T09:14:10.764Z,6.0468
2023-04-07T09:15:18.939Z,6.0388
2023-04-07T09:16:26.937Z,6.1143
2023-04-07T09:17:35.175Z,5.8829
2023-04-07T09:18:43.122Z,5.8627
2023-04-07T09:19:51.214Z,5.7492
2023-04-07T09:20:59.144Z,6.0323
2023-04-07T09:22:07.409Z,6.1994
2023-04-07T09:23:15.399Z,6.0897
2023-04-07T09:24:23.459Z,6.0256
2023-04-07T09:25:31.657Z,5.6636
2023-04-07T09:26:39.568Z,5.4225
2023-04-07T09:27:47.654Z,5.3559
2023-04-07T09:28:55.774Z,5.2215
2023-04-07T09:30:03.887Z,5.3599
2023-04-07T09:31:11.859Z,5.4818
2023-04-07T09:32:19.960Z,5.6037
2023-04-07T09:33:28.112Z,5.7843
2023-04-07T09:34:36.282Z,5.8742
2023-04-07T09:35:44.157Z,6.0893
2023-04-07T09:36:52.214Z,5.9657
2023-04-07T09:38:00.363Z,5.6369
2023-04-07T09:39:08.464Z,5.6033
2023-04-07T09:40:16.467Z,5.5448
2023-04-07T09:41:24.547Z,5.3582
2023-04-07T09:42:32.656Z,5.4536
2023-04-07T09:43:40.717Z,5.6649
2023-04-07T09:44:48.690Z,5.6491
2023-04-07T09:45:56.876Z,5.3527
2023-04-07T09:47:04.806Z,5.7609
2023-04-07T09:48:12.903Z,5.6481
2023-04-07T09:49:21.021Z,5.5152
2023-04-07T09:50:29.128Z,5.6039
2023-04-07T09:51:37.215Z,5.3140
2023-04-07T09:52:45.389Z,5.1292
2023-04-07T09:53:53.309Z,5.2411
2023-04-07T09:55:01.490Z,5.3212
2023-04-07T09:56:09.458Z,5.7664
2023-04-07T09:57:17.553Z,5.8953
2023-04-07T09:58:25.603Z,5.9406
2023-04-07T09:59:33.717Z,5.8822
2023-04-07T10:00:41.785Z,5.5444
2023-04-07T10:01:49.891Z,5.4040
2023-04-07T10:02:58.358Z,5.4059
2023-04-07T10:04:05.981Z,5.6153
2023-04-07T10:05:14.061Z,5.5329
2023-04-07T10:06:22.099Z,5.1000
2023-04-07T10:07:30.254Z,5.4599
2023-04-07T10:08:38.320Z,5.3371
2023-04-07T10:09:46.429Z,5.4067
2023-04-07T10:10:54.403Z,5.5377
2023-04-07T10:12:02.585Z,5.3208
2023-04-07T10:13:10.556Z,5.3420
2023-04-07T10:14:18.645Z,5.5045
2023-04-07T10:15:26.746Z,5.0899
2023-04-07T10:16:34.806Z,4.7313
2023-04-07T10:17:42.886Z,4.7666
2023-04-07T10:18:51.060Z,4.9012
2023-04-07T10:19:59.145Z,5.1892
2023-04-07T10:21:07.070Z,5.1393
2023-04-07T10:22:15.181Z,4.9916
2023-04-07T10:23:23.224Z,5.2678
2023-04-07T10:24:31.379Z,5.3020
2023-04-07T10:25:39.442Z,5.3531
2023-04-07T10:26:47.575Z,5.4134
2023-04-07T10:27:55.439Z,5.1948
2023-04-07T10:29:03.588Z,4.9777
2023-04-07T10:30:11.602Z,5.3033
2023-04-07T10:31:19.815Z,5.3159
2023-04-07T10:32:27.929Z,5.2014
2023-04-07T10:33:35.884Z,5.1093
2023-04-07T10:34:44.008Z,5.3809
2023-04-07T10:35:52.177Z,5.0942
2023-04-07T10:37:00.227Z,4.7847
2023-04-07T10:38:08.346Z,5.1995
2023-04-07T10:39:16.275Z,5.3039
2023-04-07T10:40:24.348Z,5.3882
2023-04-07T10:41:32.494Z,5.4595
2023-04-07T10:42:40.484Z,5.1957
2023-04-07T10:43:48.682Z,5.1433
2023-04-07T10:44:56.672Z,5.1072
2023-04-07T10:46:04.738Z,5.2377
2023-04-07T10:47:12.776Z,5.0914
2023-04-07T10:48:20.879Z,5.3422
2023-04-07T10:49:29.023Z,5.6106
2023-04-07T10:50:37.077Z,5.5650
2023-04-07T10:51:45.080Z,5.3018
2023-04-07T10:52:53.125Z,5.4664
2023-04-07T10:54:01.164Z,5.4698
2023-04-07T10:55:09.403Z,5.3687
2023-04-07T10:56:17.297Z,5.2667
2023-04-07T10:57:25.456Z,5.3432
2023-04-07T10:58:33.516Z,5.6285
2023-04-07T10:59:41.538Z,5.6317
2023-04-07T11:00:49.651Z,5.7342
2023-04-07T11:01:57.889Z,5.7180
2023-04-07T11:03:05.926Z,5.3763
2023-04-07T11:04:14.114Z,5.0950
2023-04-07T11:05:22.006Z,4.9132
2023-04-07T11:06:30.146Z,4.5844
2023-04-07T11:07:38.093Z,4.4890
2023-04-07T11:08:48.373Z,4.6693
2023-04-07T11:09:59.105Z,4.5032
2023-04-07T11:11:07.274Z,4.1373
2023-04-07T11:12:15.273Z,4.1566
2023-04-07T11:13:23.346Z,4.5140
2023-04-07T11:14:31.341Z,4.6210
2023-04-07T11:15:40.909Z,4.4028
2023-04-07T11:16:47.641Z,4.2487
2023-04-07T11:17:55.718Z,4.5880
2023-04-07T11:19:03.692Z,4.4747
2023-04-07T11:20:11.760Z,4.4396
2023-04-07T11:21:19.878Z,4.3729
2023-04-07T11:22:30.303Z,4.1131
2023-04-07T11:23:35.956Z,4.2437
2023-04-07T11:24:44.019Z,4.4152
2023-04-07T11:25:52.118Z,4.4660
2023-04-07T11:27:00.165Z,4.5068
2023-04-07T11:28:08.375Z,4.5052
2023-04-07T11:29:16.275Z,4.0742
2023-04-07T11:30:24.419Z,4.1421
2023-04-07T11:31:32.565Z,3.8087
2023-04-07T11:32:40.551Z,3.8588
2023-04-07T11:33:48.786Z,3.8106
2023-04-07T11:34:56.618Z,3.6780
2023-04-07T11:36:04.881Z,3.8758
2023-04-07T11:37:12.824Z,3.8941
2023-04-07T11:38:20.892Z,4.1753
2023-04-07T11:39:29.010Z,3.7165
2023-04-07T11:40:37.163Z,3.3868
2023-04-07T11:41:45.213Z,3.4777
2023-04-07T11:42:53.212Z,3.5037
2023-04-07T11:44:01.314Z,3.2605
2023-04-07T11:45:09.397Z,3.1562
2023-04-07T11:46:17.423Z,3.1815
2023-04-07T11:47:25.469Z,3.1567
2023-04-07T11:48:33.642Z,2.9183
2023-04-07T11:49:41.665Z,3.0158
2023-04-07T11:50:49.729Z,3.0598
2023-04-07T11:51:57.882Z,2.6789
2023-04-07T11:53:05.992Z,2.8399
2023-04-07T11:54:14.050Z,2.7022
2023-04-07T11:55:22.421Z,2.5160
2023-04-07T11:56:30.183Z,2.6108
2023-04-07T11:57:38.269Z,2.5073
2023-04-07T11:58:46.305Z,2.4161
2023-04-07T11:59:54.391Z,2.4720
2023-04-07T12:01:02.448Z,2.7615
2023-04-07T12:02:10.874Z,2.7877
2023-04-07T12:03:18.749Z,2.7005
2023-04-07T12:04:26.755Z,2.5927
2023-04-07T12:05:34.734Z,2.8989
2023-04-07T12:06:42.916Z,2.9193
2023-04-07T12:07:50.918Z,2.6759
2023-04-07T12:08:58.891Z,2.7432
2023-04-07T12:10:07.030Z,2.7003
2023-04-07T12:11:15.224Z,2.8458
2023-04-07T12:12:23.182Z,2.6881
2023-04-07T12:13:31.273Z,2.7375
2023-04-07T12:14:39.276Z,2.7919
2023-04-07T12:15:47.390Z,2.7011
2023-04-07T12:16:55.527Z,2.7825
2023-04-07T12:18:03.606Z,3.0320
2023-04-07T12:19:11.789Z,3.2668
2023-04-07T12:20:19.666Z,3.4005
2023-04-07T12:21:27.784Z,3.1703
2023-04-07T12:22:35.840Z,3.0886
2023-04-07T12:23:44.023Z,3.0728
2023-04-07T12:24:52.028Z,3.2397
2023-04-07T12:25:59.994Z,3.1420
2023-04-07T12:27:08.176Z,3.1874
2023-04-07T12:28:16.202Z,3.2792
2023-04-07T12:29:24.256Z,3.2952
2023-04-07T12:30:32.408Z,3.1976
2023-04-07T12:31:40.371Z,3.1335
2023-04-07T12:32:48.547Z,3.0566
2023-04-07T12:33:56.621Z,2.9944
2023-04-07T12:35:04.665Z,3.0005
2023-04-07T12:36:12.889Z,3.1815
2023-04-07T12:37:20.852Z,3.3091
2023-04-07T12:38:28.825Z,3.3162
2023-04-07T12:39:36.989Z,3.5538
2023-04-07T12:40:45.133Z,3.7488
2023-04-07T12:41:53.182Z,3.6338
2023-04-07T12:43:01.175Z,3.4594
2023-04-07T12:44:09.298Z,3.5359
2023-04-07T12:45:17.308Z,3.4440
2023-04-07T12:46:25.523Z,3.3692
2023-04-07T12:47:33.546Z,3.2557
2023-04-07T12:48:41.760Z,3.4270
2023-04-07T12:49:50.297Z,3.5367
2023-04-07T12:50:57.686Z,3.5361
2023-04-07T12:52:05.771Z,3.6498
2023-04-07T12:53:13.859Z,3.5939
2023-04-07T12:54:21.895Z,3.5125
2023-04-07T12:55:29.925Z,3.6973
2023-04-07T12:56:38.158Z,3.9574
2023-04-07T12:57:46.119Z,4.1995
2023-04-07T12:58:54.359Z,3.9632
2023-04-07T13:00:02.202Z,3.7724
2023-04-07T13:01:10.271Z,3.9414
2023-04-07T13:02:18.489Z,3.8249
2023-04-07T13:03:26.696Z,3.8949
2023-04-07T13:04:34.636Z,4.0027
2023-04-07T13:05:42.617Z,3.8901
2023-04-07T13:06:50.629Z,4.3145
2023-04-07T13:07:58.757Z,4.6517
2023-04-07T13:09:06.725Z,4.9958
2023-04-07T13:10:15.033Z,5.2964
2023-04-07T13:11:22.957Z,4.8583
2023-04-07T13:12:31.153Z,4.3939
2023-04-07T13:13:39.136Z,4.2760
2023-04-07T13:14:59.271Z,4.3664
2023-04-07T13:16:00.163Z,4.2795
2023-04-07T13:17:08.318Z,4.2186
2023-04-07T13:18:16.180Z,4.6620
2023-04-07T13:19:24.498Z,4.6115
2023-04-07T13:20:32.391Z,4.8560
2023-04-07T13:21:46.607Z,5.1038
2023-04-07T13:23:04.509Z,4.9365
2023-04-07T13:24:06.329Z,4.7982
2023-04-07T13:25:14.373Z,5.0036
2023-04-07T13:26:22.452Z,4.5835
2023-04-07T13:27:30.641Z,4.6216
2023-04-07T13:28:38.576Z,4.9254
2023-04-07T13:29:46.653Z,4.4103
2023-04-07T13:30:54.833Z,4.8057
2023-04-07T13:32:02.758Z,5.0561
2023-04-07T13:33:10.860Z,5.3622
2023-04-07T13:34:18.896Z,5.7475
2023-04-07T13:35:26.967Z,5.7340
2023-04-07T13:36:35.052Z,5.6771
2023-04-07T13:37:43.153Z,5.5457
2023-04-07T13:38:51.272Z,5.5080
2023-04-07T13:39:59.206Z,5.3672
2023-04-07T13:41:07.311Z,5.2156
2023-04-07T13:42:15.316Z,5.3001
2023-04-07T13:43:23.425Z,5.0416
2023-04-07T13:44:31.611Z,5.0586
2023-04-07T13:45:39.502Z,5.2735
2023-04-07T13:46:47.880Z,5.3287
2023-04-07T13:47:56.858Z,5.8925
2023-04-07T13:49:03.783Z,6.3474
2023-04-07T13:50:11.947Z,5.9495
2023-04-07T13:51:19.927Z,6.4622
2023-04-07T13:52:27.966Z,6.8742
2023-04-07T13:53:36.014Z,6.2730
2023-04-07T13:54:44.208Z,6.3167
2023-04-07T13:55:52.237Z,6.4199
2023-04-07T13:57:00.170Z,7.1142
2023-04-07T13:58:08.367Z,7.2339
2023-04-07T13:59:16.354Z,7.1977
2023-04-07T14:00:24.476Z,7.2238
2023-04-07T14:01:32.576Z,7.2923
2023-04-07T14:02:40.615Z,6.8027
2023-04-07T14:03:48.981Z,6.3211
2023-04-07T14:04:56.783Z,6.7399
2023-04-07T14:06:04.874Z,7.4485
2023-04-07T14:07:12.850Z,7.8237
2023-04-07T14:08:20.849Z,7.9359
2023-04-07T14:09:29.017Z,8.0926